Time;durP1;ratioP1;P1;durP2;ratioP2;P2;SDS_P1;SDS_P2;PMS_P1;PMS_P2;Temp;Humidity;BMP_temperature;BMP_pressure;BME280_temperature;BME280_humidity;BME280_pressure;Samples;Min_cycle;Max_cycle;Signal;HPM_P1;HPM_P2
2021/01/03 00:00:23;;;;;;;18.67;10.60;;;2.50;81.80;;;;;;5012333;28;20041;-89
2021/01/03 00:02:50;;;;;;;21.45;11.15;;;2.50;81.80;;;;;;5009790;28;20494;-88
2021/01/03 00:05:19;;;;;;;17.70;10.80;;;2.50;81.70;;;;;;5011670;28;20083;-89
2021/01/03 00:07:44;;;;;;;19.80;10.98;;;2.40;81.70;;;;;;5011681;28;20124;-89
2021/01/03 00:10:10;;;;;;;19.67;11.02;;;2.40;81.70;;;;;;5028500;28;20442;-87
2021/01/03 00:12:36;;;;;;;20.90;11.25;;;2.50;81.80;;;;;;5010629;28;20041;-88
2021/01/03 00:15:05;;;;;;;23.90;11.85;;;2.40;81.80;;;;;;5012588;28;20581;-88
2021/01/03 00:17:30;;;;;;;20.00;11.35;;;2.40;81.80;;;;;;4999084;28;20030;-88
2021/01/03 00:19:56;;;;;;;23.35;12.52;;;2.40;81.80;;;;;;5001325;28;20037;-89
2021/01/03 00:22:22;;;;;;;21.30;12.00;;;2.40;81.80;;;;;;5013188;28;20026;-88
2021/01/03 00:24:47;;;;;;;21.98;12.75;;;2.50;81.90;;;;;;5013293;28;20056;-88
2021/01/03 00:27:13;;;;;;;22.52;12.23;;;2.40;81.90;;;;;;5013769;28;20452;-88
2021/01/03 00:29:38;;;;;;;23.48;13.02;;;2.50;81.90;;;;;;5012538;28;20030;-89
2021/01/03 00:32:04;;;;;;;23.85;12.27;;;2.40;81.90;;;;;;5015154;28;20111;-89
2021/01/03 00:34:30;;;;;;;25.35;13.80;;;2.40;81.90;;;;;;5015330;28;20067;-89
2021/01/03 00:36:55;;;;;;;27.48;14.10;;;2.40;81.90;;;;;;5015941;28;20512;-89
2021/01/03 00:39:21;;;;;;;30.67;15.60;;;2.40;81.80;;;;;;5032113;28;20492;-88
2021/01/03 00:41:48;;;;;;;29.05;14.63;;;2.40;81.90;;;;;;5004455;28;20054;-88
2021/01/03 00:44:14;;;;;;;30.67;14.68;;;2.40;81.90;;;;;;5010096;28;20080;-88
2021/01/03 00:46:41;;;;;;;33.55;15.82;;;2.40;82.00;;;;;;5013043;28;20034;-89
2021/01/03 00:49:06;;;;;;;29.98;15.90;;;2.30;81.90;;;;;;5007808;28;20058;-88
2021/01/03 00:51:32;;;;;;;30.35;14.75;;;2.30;82.00;;;;;;5015813;28;20065;-89
2021/01/03 00:53:57;;;;;;;29.33;14.82;;;2.30;82.00;;;;;;5014395;28;20037;-88
2021/01/03 00:56:24;;;;;;;32.92;15.38;;;2.20;81.80;;;;;;5014980;28;20077;-88
2021/01/03 00:58:50;;;;;;;32.63;15.75;;;2.20;81.90;;;;;;5015754;28;20076;-88
2021/01/03 01:01:16;;;;;;;31.60;16.27;;;2.10;82.00;;;;;;5015509;28;20029;-89
2021/01/03 01:03:41;;;;;;;30.13;15.27;;;2.10;82.20;;;;;;5015772;28;20093;-88
2021/01/03 01:06:07;;;;;;;33.92;16.27;;;2.00;82.40;;;;;;5015183;28;20018;-89
2021/01/03 01:08:32;;;;;;;34.90;17.52;;;2.00;82.60;;;;;;5014774;28;20024;-88
2021/01/03 01:10:58;;;;;;;30.23;15.43;;;1.90;82.70;;;;;;5014987;28;20099;-88
2021/01/03 01:13:24;;;;;;;32.35;15.50;;;1.90;82.80;;;;;;5015372;28;20030;-88
2021/01/03 01:15:50;;;;;;;29.15;14.55;;;1.90;83.00;;;;;;5014026;28;20025;-89
2021/01/03 01:18:16;;;;;;;31.98;16.17;;;1.80;82.80;;;;;;5013228;28;20304;-88
2021/01/03 01:20:41;;;;;;;34.90;16.30;;;1.90;83.00;;;;;;5014403;28;20057;-89
2021/01/03 01:23:07;;;;;;;38.03;16.73;;;1.80;83.00;;;;;;5014276;28;20029;-89
2021/01/03 01:25:34;;;;;;;38.15;17.50;;;1.80;83.10;;;;;;5013471;28;20022;-89
2021/01/03 01:28:00;;;;;;;34.25;15.82;;;1.80;83.10;;;;;;5014708;28;20084;-88
2021/01/03 01:30:27;;;;;;;35.50;15.65;;;1.80;83.20;;;;;;5013953;28;20033;-89
2021/01/03 01:32:53;;;;;;;31.35;15.40;;;1.80;83.20;;;;;;5014673;28;20045;-88
2021/01/03 01:35:46;;;;;;;33.90;14.70;;;1.80;83.30;;;;;;5013688;28;20133;-88
2021/01/03 01:38:12;;;;;;;32.03;15.18;;;1.80;83.30;;;;;;4995777;28;20049;-89
2021/01/03 01:40:39;;;;;;;29.27;14.15;;;1.80;83.20;;;;;;5013198;28;20394;-89
2021/01/03 01:43:08;;;;;;;30.58;14.77;;;1.80;83.20;;;;;;5015566;28;20097;-88
2021/01/03 01:45:36;;;;;;;32.45;15.27;;;1.80;83.20;;;;;;5014276;28;20036;-89
2021/01/03 01:48:46;;;;;;;32.90;15.38;;;1.80;83.70;;;;;;5003561;28;20545;-89
2021/01/03 01:51:33;;;;;;;33.65;15.50;;;1.90;83.30;;;;;;5004284;28;20053;-88
2021/01/03 01:54:15;;;;;;;30.02;14.07;;;1.80;83.10;;;;;;5014768;28;20108;-88
2021/01/03 01:57:22;;;;;;;30.83;15.05;;;1.80;83.10;;;;;;4995032;28;20030;-88
2021/01/03 02:00:22;;;;;;;36.50;14.98;;;1.80;83.20;;;;;;5008850;28;20057;-88
2021/01/03 02:03:01;;;;;;;30.33;14.55;;;1.80;83.20;;;;;;4996036;28;20088;-88
2021/01/03 02:05:36;;;;;;;29.63;14.02;;;1.80;83.30;;;;;;5012049;28;20022;-88
2021/01/03 02:08:29;;;;;;;31.15;14.60;;;1.80;83.20;;;;;;5013147;28;20022;-89
2021/01/03 02:10:58;;;;;;;30.40;14.65;;;1.80;83.20;;;;;;5029721;28;20398;-89
2021/01/03 02:14:00;;;;;;;29.25;15.05;;;1.70;83.20;;;;;;5013316;28;20033;-89
2021/01/03 02:16:43;;;;;;;32.67;15.37;;;1.70;83.50;;;;;;5012708;28;20038;-88
2021/01/03 02:19:18;;;;;;;32.53;14.35;;;1.60;83.50;;;;;;5007931;28;20364;-88
2021/01/03 02:22:01;;;;;;;33.25;14.82;;;1.60;83.60;;;;;;5012569;28;20177;-88
2021/01/03 02:24:47;;;;;;;29.48;13.98;;;1.60;83.80;;;;;;5013736;28;20029;-89
2021/01/03 02:27:25;;;;;;;32.63;15.40;;;1.50;83.80;;;;;;5011211;28;20033;-88
2021/01/03 02:29:53;;;;;;;30.60;15.07;;;1.50;83.90;;;;;;5013103;28;20084;-89
2021/01/03 02:32:21;;;;;;;33.08;14.90;;;1.50;84.00;;;;;;5014448;28;20482;-89
2021/01/03 02:34:49;;;;;;;33.78;15.65;;;1.50;84.00;;;;;;5014126;28;20026;-89
2021/01/03 02:37:30;;;;;;;29.17;14.65;;;1.50;84.10;;;;;;4994274;28;20027;-89
2021/01/03 02:40:00;;;;;;;32.50;15.82;;;1.50;84.20;;;;;;5005593;28;20109;-88
2021/01/03 02:42:29;;;;;;;32.55;14.68;;;1.50;84.30;;;;;;5014734;28;20033;-88
2021/01/03 02:44:57;;;;;;;30.80;14.55;;;1.50;84.30;;;;;;5012257;28;20060;-88
2021/01/03 02:47:27;;;;;;;32.50;14.25;;;1.50;84.20;;;;;;5012613;28;20156;-88
2021/01/03 02:49:53;;;;;;;34.38;14.85;;;1.50;84.30;;;;;;5006972;28;20521;-87
2021/01/03 02:52:34;;;;;;;28.40;13.98;;;1.50;84.40;;;;;;5014879;28;20026;-89
2021/01/03 02:55:00;;;;;;;35.35;16.25;;;1.50;84.40;;;;;;5011998;28;20505;-89
2021/01/03 02:57:26;;;;;;;33.90;15.50;;;1.50;84.40;;;;;;5013389;28;20045;-88
2021/01/03 02:59:51;;;;;;;34.03;15.25;;;1.50;84.40;;;;;;5011944;28;20025;-88
2021/01/03 03:02:18;;;;;;;33.67;15.23;;;1.60;84.50;;;;;;5013771;28;20083;-88
2021/01/03 03:04:44;;;;;;;32.08;14.55;;;1.60;84.60;;;;;;5012770;28;20026;-88
2021/01/03 03:07:09;;;;;;;32.70;15.07;;;1.70;84.60;;;;;;5012302;28;20112;-88
2021/01/03 03:09:35;;;;;;;32.83;14.82;;;1.60;84.40;;;;;;5012650;28;20417;-88
2021/01/03 03:12:01;;;;;;;31.55;15.00;;;1.70;84.50;;;;;;5011561;28;20107;-89
2021/01/03 03:14:26;;;;;;;31.13;14.90;;;1.70;84.60;;;;;;5011767;28;20050;-88
2021/01/03 03:16:59;;;;;;;36.35;16.40;;;1.70;84.50;;;;;;5007796;28;20041;-88
2021/01/03 03:19:25;;;;;;;32.80;15.13;;;1.70;84.60;;;;;;5008065;28;20581;-89
2021/01/03 03:21:52;;;;;;;36.10;15.18;;;1.80;84.70;;;;;;5012140;28;20057;-89
2021/01/03 03:24:18;;;;;;;37.28;16.08;;;1.80;84.70;;;;;;5012618;28;20022;-89
2021/01/03 03:26:50;;;;;;;34.15;15.35;;;1.80;84.70;;;;;;5012774;28;20375;-89
2021/01/03 03:29:16;;;;;;;33.92;15.73;;;1.90;84.70;;;;;;5012642;28;20128;-89
2021/01/03 03:31:41;;;;;;;38.75;16.77;;;1.90;84.70;;;;;;5012032;28;20058;-88
2021/01/03 03:34:07;;;;;;;34.20;15.93;;;1.90;84.60;;;;;;5011660;28;20026;-88
2021/01/03 03:36:32;;;;;;;34.40;16.27;;;1.90;84.70;;;;;;5012362;28;20034;-88
2021/01/03 03:38:58;;;;;;;34.95;16.50;;;1.90;84.60;;;;;;5012548;28;20030;-88
2021/01/03 03:41:24;;;;;;;31.05;15.68;;;2.00;84.50;;;;;;5011824;28;20022;-89
2021/01/03 03:43:50;;;;;;;34.60;16.77;;;1.90;84.50;;;;;;5011464;28;20026;-88
2021/01/03 03:46:16;;;;;;;38.88;17.52;;;1.90;84.50;;;;;;5012791;28;20034;-88
2021/01/03 03:48:42;;;;;;;33.35;16.00;;;1.90;84.50;;;;;;5009486;28;20109;-88
2021/01/03 03:51:07;;;;;;;39.00;17.02;;;1.90;84.50;;;;;;4992313;28;20037;-89
2021/01/03 03:53:33;;;;;;;36.35;17.17;;;2.00;84.60;;;;;;5010133;28;20394;-88
2021/01/03 03:55:58;;;;;;;35.45;17.10;;;2.00;84.60;;;;;;5011524;28;20409;-89
2021/01/03 03:58:24;;;;;;;36.67;16.27;;;2.00;84.60;;;;;;5005551;28;20445;-88
2021/01/03 04:00:49;;;;;;;34.53;16.23;;;2.10;84.50;;;;;;4992979;28;20022;-88
2021/01/03 04:03:18;;;;;;;32.92;16.33;;;2.00;84.50;;;;;;5007140;28;20021;-88
2021/01/03 04:05:46;;;;;;;34.22;16.27;;;2.10;84.50;;;;;;5011418;28;20049;-88
2021/01/03 04:08:13;;;;;;;36.42;16.88;;;2.00;84.40;;;;;;5012394;28;20041;-88
2021/01/03 04:10:40;;;;;;;37.03;16.83;;;2.00;84.50;;;;;;5011459;28;20033;-88
2021/01/03 04:13:10;;;;;;;32.90;16.08;;;2.10;84.50;;;;;;5011732;28;20064;-88
2021/01/03 04:15:37;;;;;;;33.15;15.95;;;2.10;84.60;;;;;;5011417;28;20109;-88
2021/01/03 04:18:03;;;;;;;36.72;17.10;;;2.00;84.50;;;;;;5010615;28;20049;-88
2021/01/03 04:20:29;;;;;;;34.45;16.02;;;2.10;84.60;;;;;;5000836;28;20026;-88
2021/01/03 04:22:55;;;;;;;32.80;16.52;;;2.10;84.60;;;;;;5011118;28;20034;-88
2021/01/03 04:25:21;;;;;;;32.92;16.23;;;2.10;84.60;;;;;;5012771;28;20037;-88
2021/01/03 04:27:47;;;;;;;33.92;16.60;;;2.10;85.10;;;;;;5011782;28;20030;-88
2021/01/03 04:30:15;;;;;;;37.92;17.00;;;2.10;84.60;;;;;;5010999;28;20026;-88
2021/01/03 04:32:40;;;;;;;36.50;18.00;;;2.10;84.60;;;;;;5013171;28;20026;-88
2021/01/03 04:35:07;;;;;;;36.67;16.45;;;2.00;84.50;;;;;;5010907;28;20052;-89
2021/01/03 04:37:33;;;;;;;36.35;17.02;;;2.00;84.50;;;;;;5012551;28;20394;-88
2021/01/03 04:39:59;;;;;;;34.50;17.13;;;2.00;84.60;;;;;;5010699;28;20029;-88
2021/01/03 04:42:30;;;;;;;36.53;17.77;;;2.00;84.60;;;;;;5011326;28;20089;-88
2021/01/03 04:45:03;;;;;;;36.63;17.40;;;2.00;84.60;;;;;;5012695;28;20076;-88
2021/01/03 04:47:51;;;;;;;36.15;16.80;;;2.00;84.70;;;;;;5004339;28;20031;-88
2021/01/03 04:50:48;;;;;;;31.73;16.88;;;1.90;84.60;;;;;;5007762;28;20057;-88
2021/01/03 04:53:35;;;;;;;33.42;17.33;;;1.90;84.60;;;;;;5009827;28;20060;-87
2021/01/03 04:56:31;;;;;;;33.03;17.30;;;1.90;84.60;;;;;;5012097;28;20026;-87
2021/01/03 04:59:13;;;;;;;30.48;15.95;;;1.90;84.70;;;;;;5012066;28;20502;-89
2021/01/03 05:01:38;;;;;;;38.72;17.20;;;1.90;84.70;;;;;;5013839;28;20022;-88
2021/01/03 05:04:16;;;;;;;31.10;16.63;;;1.90;84.70;;;;;;5011201;28;20034;-88
2021/01/03 05:06:49;;;;;;;31.70;16.30;;;2.00;84.80;;;;;;5009217;28;20023;-88
2021/01/03 05:09:15;;;;;;;30.63;16.88;;;2.00;85.20;;;;;;5001044;28;20030;-87
2021/01/03 05:11:50;;;;;;;30.88;16.27;;;2.00;84.70;;;;;;5011476;28;20022;-88
2021/01/03 05:14:41;;;;;;;30.27;16.05;;;1.90;84.70;;;;;;5008522;28;20037;-88
2021/01/03 05:17:06;;;;;;;28.45;15.05;;;1.90;84.70;;;;;;5012010;28;20026;-89
2021/01/03 05:19:32;;;;;;;26.55;14.65;;;1.90;84.60;;;;;;5016775;28;20029;-88
2021/01/03 05:21:57;;;;;;;25.75;14.65;;;1.90;84.70;;;;;;5017933;28;20053;-88
2021/01/03 05:24:43;;;;;;;29.42;15.10;;;1.90;84.80;;;;;;5016713;28;20022;-88
2021/01/03 05:27:16;;;;;;;29.25;15.55;;;1.90;84.90;;;;;;5015593;28;20076;-88
2021/01/03 05:29:42;;;;;;;28.60;15.23;;;2.00;84.90;;;;;;5009612;28;20410;-88
2021/01/03 05:32:08;;;;;;;30.58;14.98;;;2.00;84.70;;;;;;5012398;28;20117;-87
2021/01/03 05:34:37;;;;;;;26.77;15.02;;;2.00;84.70;;;;;;5014415;28;20517;-88
2021/01/03 05:37:16;;;;;;;29.08;15.25;;;2.00;84.60;;;;;;5016123;28;20052;-88
2021/01/03 05:39:42;;;;;;;27.48;15.30;;;2.00;84.70;;;;;;5016520;28;20030;-88
2021/01/03 05:42:20;;;;;;;30.85;16.52;;;2.00;84.60;;;;;;5015677;28;20445;-87
2021/01/03 05:45:03;;;;;;;28.25;15.52;;;2.10;84.70;;;;;;5000835;28;20057;-88
2021/01/03 05:47:30;;;;;;;30.80;16.50;;;2.10;84.60;;;;;;5064137;22;20077;-67
2021/01/03 05:50:11;;;;;;;29.90;15.82;;;2.10;84.50;;;;;;5031116;28;20034;-67
2021/01/03 05:52:49;;;;;;;32.42;16.42;;;2.10;84.50;;;;;;5032335;28;20500;-67
2021/01/03 05:55:23;;;;;;;28.23;16.00;;;2.10;84.50;;;;;;5028967;28;20036;-67
2021/01/03 05:57:49;;;;;;;30.05;15.57;;;2.10;84.50;;;;;;5032476;28;20033;-67
2021/01/03 06:00:25;;;;;;;30.88;16.13;;;2.10;84.50;;;;;;5031205;28;20033;-67
2021/01/03 06:02:52;;;;;;;32.53;16.10;;;2.10;84.50;;;;;;5031924;28;20025;-68
2021/01/03 06:05:21;;;;;;;28.27;15.23;;;2.10;84.40;;;;;;5030111;28;20079;-67
2021/01/03 06:08:02;;;;;;;29.17;16.20;;;2.10;84.40;;;;;;5030999;28;20030;-67
2021/01/03 06:10:35;;;;;;;30.08;15.50;;;2.10;84.50;;;;;;5032615;28;20029;-67
2021/01/03 06:13:03;;;;;;;29.88;15.70;;;2.00;84.50;;;;;;5027949;28;20382;-68
2021/01/03 06:15:57;;;;;;;30.40;16.38;;;2.10;84.60;;;;;;5030106;28;20026;-66
2021/01/03 06:18:34;;;;;;;27.17;14.73;;;2.00;84.60;;;;;;5013680;28;20032;-67
2021/01/03 06:20:59;;;;;;;29.98;15.55;;;2.10;84.70;;;;;;5031509;28;20033;-67
2021/01/03 06:23:35;;;;;;;29.27;15.25;;;2.10;84.60;;;;;;5032162;28;20033;-67
2021/01/03 06:26:12;;;;;;;31.65;16.45;;;2.10;84.60;;;;;;5022504;28;20049;-68
2021/01/03 06:28:48;;;;;;;30.10;16.25;;;2.10;84.70;;;;;;5020087;28;20037;-68
2021/01/03 06:31:17;;;;;;;27.20;15.57;;;2.10;84.60;;;;;;5031989;28;20048;-68
2021/01/03 06:34:14;;;;;;;27.08;14.98;;;2.10;84.50;;;;;;5031499;28;20029;-67
2021/01/03 06:36:54;;;;;;;26.50;15.18;;;2.10;84.50;;;;;;5022455;28;20431;-67
2021/01/03 06:39:35;;;;;;;29.58;14.85;;;2.10;84.40;;;;;;5017251;28;20105;-68
2021/01/03 06:42:42;;;;;;;25.42;14.65;;;2.00;84.40;;;;;;5024356;28;20033;-68
2021/01/03 06:46:01;;;;;;;25.10;13.63;;;2.00;84.50;;;;;;5031191;28;20100;-68
2021/01/03 06:49:04;;;;;;;28.45;15.40;;;2.00;84.60;;;;;;5025970;28;20040;-68
2021/01/03 06:51:47;;;;;;;27.60;14.38;;;2.00;84.60;;;;;;5030276;28;20104;-67
2021/01/03 06:54:50;;;;;;;28.05;15.00;;;2.00;84.50;;;;;;5017073;28;20025;-67
2021/01/03 06:57:31;;;;;;;;;;;2.00;84.50;;;;;;5032008;28;20406;-68
2021/01/03 07:00:15;;;;;;;26.45;13.73;;;2.00;84.30;;;;;;5031389;28;20349;-67
2021/01/03 07:03:03;;;;;;;25.75;14.05;;;1.90;84.40;;;;;;5029836;28;20075;-68
2021/01/03 07:05:28;;;;;;;29.10;15.43;;;1.90;84.60;;;;;;5029817;28;20030;-68
2021/01/03 07:08:04;;;;;;;26.10;13.98;;;1.80;84.50;;;;;;5031552;28;20036;-67
2021/01/03 07:10:34;;;;;;;28.05;15.02;;;1.80;84.70;;;;;;5015341;28;20028;-67
2021/01/03 07:13:00;;;;;;;30.75;15.50;;;1.80;84.80;;;;;;5031389;28;20037;-67
2021/01/03 07:15:25;;;;;;;25.98;14.65;;;1.80;84.70;;;;;;5030217;28;20033;-68
2021/01/03 07:17:57;;;;;;;32.85;16.05;;;1.80;84.80;;;;;;5024917;28;20021;-68
2021/01/03 07:21:03;;;;;;;30.80;15.88;;;1.80;84.90;;;;;;5028916;28;20426;-68
2021/01/03 07:23:38;;;;;;;30.85;16.05;;;1.80;85.00;;;;;;5030889;28;20018;-67
2021/01/03 07:26:13;;;;;;;30.52;14.95;;;1.80;84.80;;;;;;5030082;28;20096;-68
2021/01/03 07:28:45;;;;;;;28.73;14.80;;;1.90;84.90;;;;;;5029351;28;20029;-67
2021/01/03 07:31:33;;;;;;;28.00;14.98;;;1.80;84.80;;;;;;5031048;28;20021;-67
2021/01/03 07:34:11;;;;;;;30.05;15.48;;;1.90;84.80;;;;;;5029063;28;20040;-67
2021/01/03 07:36:36;;;;;;;28.40;14.85;;;1.90;84.70;;;;;;5022928;28;20032;-67
2021/01/03 07:39:14;;;;;;;25.45;14.60;;;1.90;84.80;;;;;;5028764;28;20396;-68
2021/01/03 07:41:41;;;;;;;26.83;14.60;;;1.90;84.80;;;;;;5029281;28;20025;-68
2021/01/03 07:44:09;;;;;;;30.77;16.38;;;2.00;84.80;;;;;;5028334;28;20061;-67
2021/01/03 07:46:52;;;;;;;32.00;16.85;;;2.00;84.80;;;;;;5028614;28;20021;-67
2021/01/03 07:49:26;;;;;;;25.42;14.23;;;2.10;84.70;;;;;;5028463;28;20025;-68
2021/01/03 07:51:51;;;;;;;28.20;15.27;;;2.10;84.20;;;;;;5030512;28;20044;-68
2021/01/03 07:54:17;;;;;;;30.20;15.25;;;2.00;84.00;;;;;;5029274;28;20029;-67
2021/01/03 07:56:42;;;;;;;28.13;15.43;;;2.00;84.20;;;;;;5028911;28;20029;-67
2021/01/03 07:59:08;;;;;;;27.58;15.52;;;2.00;84.40;;;;;;5030304;28;20030;-68
2021/01/03 08:01:41;;;;;;;28.75;15.98;;;2.00;84.50;;;;;;5030101;28;20021;-67
2021/01/03 08:04:25;;;;;;;26.80;15.25;;;2.10;84.50;;;;;;5028865;28;20026;-69
2021/01/03 08:06:50;;;;;;;28.75;15.88;;;2.00;84.40;;;;;;5022617;28;20433;-69
2021/01/03 08:09:27;;;;;;;30.33;15.30;;;2.00;84.50;;;;;;5025438;28;20025;-67
2021/01/03 08:12:06;;;;;;;27.08;14.90;;;2.10;84.60;;;;;;5017826;28;20034;-67
2021/01/03 08:14:34;;;;;;;25.13;14.52;;;2.10;84.50;;;;;;5023506;28;20032;-68
2021/01/03 08:17:01;;;;;;;26.55;14.73;;;2.10;84.20;;;;;;5030468;28;20033;-67
2021/01/03 08:19:28;;;;;;;26.02;15.50;;;2.10;84.30;;;;;;5028127;28;20507;-69
2021/01/03 08:21:57;;;;;;;30.13;15.80;;;2.10;84.40;;;;;;5030163;28;20029;-67
2021/01/03 08:24:23;;;;;;;28.17;15.23;;;2.20;84.50;;;;;;5029041;28;20021;-68
2021/01/03 08:26:53;;;;;;;35.22;19.23;;;2.20;84.60;;;;;;5026454;28;20025;-68
2021/01/03 08:29:22;;;;;;;29.95;15.43;;;2.20;84.60;;;;;;5029663;28;20488;-68
2021/01/03 08:31:53;;;;;;;29.58;16.20;;;2.20;84.50;;;;;;5028280;28;20045;-68
2021/01/03 08:34:27;;;;;;;29.48;16.60;;;2.30;84.40;;;;;;5018200;28;20109;-68
2021/01/03 08:36:52;;;;;;;24.60;14.43;;;2.30;84.40;;;;;;5029840;28;20116;-68
2021/01/03 08:39:18;;;;;;;26.88;15.27;;;2.30;84.40;;;;;;5025559;28;20521;-68
2021/01/03 08:42:02;;;;;;;27.08;15.27;;;2.30;84.10;;;;;;5022143;28;20040;-68
2021/01/03 08:44:34;;;;;;;27.88;14.95;;;2.20;84.10;;;;;;5027440;28;20040;-68
2021/01/03 08:47:03;;;;;;;27.55;15.70;;;2.20;84.40;;;;;;5025487;28;20045;-69
2021/01/03 08:49:29;;;;;;;27.58;14.27;;;2.20;84.30;;;;;;5027762;28;20037;-67
2021/01/03 08:52:16;;;;;;;29.42;15.90;;;2.20;84.20;;;;;;5024512;28;20389;-67
2021/01/03 08:54:43;;;;;;;27.15;15.35;;;2.20;84.30;;;;;;5033304;28;20041;-68
2021/01/03 08:57:09;;;;;;;29.42;15.57;;;2.30;84.50;;;;;;5032359;28;20045;-67
2021/01/03 08:59:35;;;;;;;24.23;13.85;;;2.30;84.40;;;;;;5032356;28;20037;-67
2021/01/03 09:02:00;;;;;;;26.80;14.68;;;2.30;84.40;;;;;;5031874;28;20083;-68
2021/01/03 09:04:27;;;;;;;28.30;15.50;;;2.30;84.50;;;;;;5033021;28;20466;-68
2021/01/03 09:06:59;;;;;;;31.40;16.60;;;2.40;84.50;;;;;;5024324;28;20026;-67
2021/01/03 09:09:30;;;;;;;24.45;13.90;;;2.40;84.40;;;;;;5027457;28;20029;-69
2021/01/03 09:11:59;;;;;;;26.40;15.02;;;2.30;84.20;;;;;;5028423;28;20033;-68
2021/01/03 09:14:29;;;;;;;29.90;15.45;;;2.30;84.20;;;;;;5027769;28;20053;-68
2021/01/03 09:16:58;;;;;;;26.45;15.68;;;2.30;84.10;;;;;;5033370;28;20428;-67
2021/01/03 09:19:48;;;;;;;202.77;96.45;;;2.20;84.00;;;;;;5023179;28;20036;-68
2021/01/03 09:22:27;;;;;;;71.05;41.63;;;2.20;84.30;;;;;;5025825;28;20075;-68
2021/01/03 09:25:16;;;;;;;36.25;22.25;;;2.20;84.30;;;;;;5019378;28;20469;-67
2021/01/03 09:27:43;;;;;;;27.58;15.60;;;2.20;84.40;;;;;;5032950;28;20026;-68
2021/01/03 09:30:22;;;;;;;28.35;16.23;;;2.20;84.40;;;;;;5031700;28;20026;-68
2021/01/03 09:32:52;;;;;;;32.05;17.92;;;2.30;84.90;;;;;;5033620;28;20481;-70
2021/01/03 09:35:24;;;;;;;31.50;16.45;;;2.30;84.10;;;;;;5031089;28;20125;-67
2021/01/03 09:38:28;;;;;;;35.42;18.42;;;2.20;83.90;;;;;;5032728;28;20428;-67
2021/01/03 09:41:08;;;;;;;32.15;18.42;;;2.20;84.20;;;;;;5022925;28;20413;-68
2021/01/03 09:43:54;;;;;;;30.65;17.40;;;2.20;84.20;;;;;;5030734;28;20025;-68
2021/01/03 09:46:34;;;;;;;33.75;17.02;;;2.20;84.30;;;;;;5029834;28;20363;-67
2021/01/03 09:49:19;;;;;;;34.15;17.30;;;2.20;84.40;;;;;;5027016;28;20070;-68
2021/01/03 09:51:50;;;;;;;31.23;16.50;;;2.20;84.50;;;;;;5032262;28;20034;-67
2021/01/03 09:54:20;;;;;;;32.08;17.30;;;2.30;84.40;;;;;;5031348;28;20033;-68
2021/01/03 09:56:51;;;;;;;32.92;16.77;;;2.30;84.80;;;;;;5030308;28;20030;-67
2021/01/03 09:59:19;;;;;;;29.52;15.98;;;2.30;84.40;;;;;;5032279;28;20041;-67
2021/01/03 10:01:48;;;;;;;33.30;17.60;;;2.30;84.30;;;;;;5032124;28;20022;-67
2021/01/03 10:04:22;;;;;;;30.13;16.95;;;2.30;84.80;;;;;;5029745;28;20025;-68
2021/01/03 10:07:11;;;;;;;27.70;15.13;;;2.40;84.90;;;;;;5032196;28;20017;-66
2021/01/03 10:09:37;;;;;;;27.40;15.77;;;2.50;85.10;;;;;;5032170;28;20033;-68
2021/01/03 10:12:19;;;;;;;30.13;16.35;;;2.60;84.80;;;;;;5031404;28;20103;-69
2021/01/03 10:14:44;;;;;;;27.48;15.85;;;2.60;84.60;;;;;;5022508;28;20389;-67
2021/01/03 10:17:21;;;;;;;26.17;15.20;;;2.80;84.80;;;;;;5030964;28;20021;-67
2021/01/03 10:19:47;;;;;;;69.10;37.08;;;2.90;85.40;;;;;;5025338;28;20102;-68
2021/01/03 10:22:43;;;;;;;25.55;15.27;;;3.10;85.20;;;;;;5017680;28;20014;-66
2021/01/03 10:25:14;;;;;;;23.17;13.40;;;3.20;84.20;;;;;;5030154;28;20045;-68
2021/01/03 10:27:40;;;;;;;24.42;14.95;;;3.10;83.80;;;;;;5029673;28;20037;-67
2021/01/03 10:30:09;;;;;;;26.30;14.77;;;3.10;83.40;;;;;;5030126;28;20516;-67
2021/01/03 10:32:36;;;;;;;25.40;15.18;;;2.90;83.30;;;;;;5020969;28;20034;-69
2021/01/03 10:35:05;;;;;;;26.90;15.70;;;2.90;83.60;;;;;;5023042;28;20064;-68
2021/01/03 10:37:30;;;;;;;26.50;15.52;;;2.80;83.60;;;;;;5026127;28;20044;-68
2021/01/03 10:39:56;;;;;;;31.10;16.95;;;2.70;83.70;;;;;;5024850;28;20033;-67
2021/01/03 10:42:21;;;;;;;26.15;14.77;;;2.70;84.10;;;;;;5023211;28;20018;-68
2021/01/03 10:44:47;;;;;;;30.73;16.35;;;2.70;84.20;;;;;;5024491;28;20025;-67
2021/01/03 10:47:13;;;;;;;45.58;21.15;;;2.60;84.40;;;;;;5025719;28;20100;-68
2021/01/03 10:49:38;;;;;;;24.63;14.40;;;2.60;84.60;;;;;;5019511;28;20388;-67
2021/01/03 10:52:05;;;;;;;22.98;14.07;;;2.70;84.60;;;;;;5025336;28;20400;-68
2021/01/03 10:54:30;;;;;;;24.55;14.65;;;2.60;84.50;;;;;;5016677;28;20112;-68
2021/01/03 10:56:57;;;;;;;27.17;14.32;;;2.60;84.80;;;;;;5013842;28;20096;-69
2021/01/03 10:59:25;;;;;;;28.02;15.63;;;2.70;85.10;;;;;;5024992;28;20033;-67
2021/01/03 11:02:37;;;;;;;27.90;15.07;;;2.70;84.80;;;;;;5030277;28;20529;-67
2021/01/03 11:05:05;;;;;;;23.87;13.70;;;2.70;84.70;;;;;;5014072;28;20076;-67
2021/01/03 11:07:31;;;;;;;28.55;14.52;;;2.70;84.70;;;;;;5023690;28;20053;-66
2021/01/03 11:09:57;;;;;;;25.40;14.13;;;2.70;84.80;;;;;;5030056;28;20628;-66
2021/01/03 11:12:24;;;;;;;26.27;14.05;;;2.70;84.60;;;;;;5026994;28;20073;-68
2021/01/03 11:14:49;;;;;;;26.27;14.43;;;2.70;84.60;;;;;;5029519;28;20065;-68
2021/01/03 11:17:16;;;;;;;29.50;14.77;;;2.70;84.40;;;;;;5025404;28;20072;-67
2021/01/03 11:19:43;;;;;;;26.38;14.98;;;2.60;84.30;;;;;;5029933;28;20651;-67
2021/01/03 11:22:11;;;;;;;28.15;15.40;;;2.70;84.30;;;;;;5029685;28;20063;-68
2021/01/03 11:24:38;;;;;;;27.83;16.02;;;2.60;84.30;;;;;;5028914;28;20330;-67
2021/01/03 11:27:07;;;;;;;28.05;14.57;;;2.60;84.30;;;;;;5028571;28;20091;-68
2021/01/03 11:29:33;;;;;;;27.70;15.52;;;2.60;84.30;;;;;;5031213;28;20381;-67
2021/01/03 11:32:00;;;;;;;26.40;14.82;;;2.60;84.20;;;;;;5030937;28;20025;-67
2021/01/03 11:34:29;;;;;;;29.42;15.57;;;2.60;84.40;;;;;;5030168;28;20478;-67
2021/01/03 11:36:58;;;;;;;36.35;19.25;;;2.70;84.50;;;;;;5030986;28;20048;-68
2021/01/03 11:39:24;;;;;;;34.92;19.92;;;2.70;84.50;;;;;;5030754;28;20466;-68
2021/01/03 11:41:52;;;;;;;31.15;16.55;;;2.80;85.20;;;;;;5027829;28;20422;-67
2021/01/03 11:44:19;;;;;;;27.83;15.38;;;2.90;84.80;;;;;;5010176;28;20025;-67
2021/01/03 11:46:46;;;;;;;26.15;14.13;;;3.00;84.70;;;;;;5087929;22;20333;-67
2021/01/03 11:49:12;;;;;;;28.65;15.65;;;3.10;84.30;;;;;;5019534;28;20098;-67
2021/01/03 11:51:37;;;;;;;29.17;15.15;;;3.10;84.10;;;;;;5027918;28;20037;-67
2021/01/03 11:54:04;;;;;;;26.38;15.38;;;3.10;83.90;;;;;;5030365;28;20083;-67
2021/01/03 11:56:30;;;;;;;26.55;14.15;;;3.00;83.80;;;;;;5030785;28;20103;-67
2021/01/03 11:58:55;;;;;;;26.15;13.82;;;3.00;83.90;;;;;;5030660;28;20057;-67
2021/01/03 12:01:23;;;;;;;24.42;14.07;;;3.00;84.10;;;;;;5030561;28;20021;-67
2021/01/03 12:03:49;;;;;;;32.33;16.27;;;3.10;84.30;;;;;;5030465;28;20024;-67
2021/01/03 12:06:19;;;;;;;25.60;13.73;;;3.10;84.20;;;;;;5030724;28;20018;-67
2021/01/03 12:08:46;;;;;;;22.80;13.13;;;3.10;84.10;;;;;;5029133;28;20350;-66
2021/01/03 12:11:20;;;;;;;25.20;14.35;;;3.20;84.10;;;;;;5029805;28;20025;-67
2021/01/03 12:13:50;;;;;;;23.83;14.05;;;3.20;84.10;;;;;;5030557;28;20029;-67
2021/01/03 12:16:21;;;;;;;21.40;12.73;;;3.20;83.80;;;;;;5029282;28;20029;-67
2021/01/03 12:18:47;;;;;;;21.40;12.85;;;3.20;83.80;;;;;;5021954;28;20075;-67
2021/01/03 12:21:30;;;;;;;41.40;21.52;;;3.20;83.90;;;;;;5030302;28;20025;-67
2021/01/03 12:23:56;;;;;;;29.77;16.17;;;3.30;83.90;;;;;;5029943;28;20509;-67
2021/01/03 12:26:22;;;;;;;22.52;13.48;;;3.30;83.90;;;;;;5032422;28;20029;-67
2021/01/03 12:28:48;;;;;;;23.40;13.48;;;3.30;83.90;;;;;;5033557;28;20104;-67
2021/01/03 12:31:15;;;;;;;24.92;16.38;;;3.30;83.90;;;;;;5034683;28;20469;-67
2021/01/03 12:33:41;;;;;;;26.60;15.60;;;3.30;83.80;;;;;;5036135;28;20088;-67
2021/01/03 12:36:07;;;;;;;99.40;51.72;;;3.40;83.80;;;;;;5035870;28;20029;-67
2021/01/03 12:38:32;;;;;;;30.40;16.80;;;3.30;83.70;;;;;;5032820;28;20036;-67
2021/01/03 12:40:59;;;;;;;25.08;14.80;;;3.30;83.80;;;;;;5034259;28;20092;-67
2021/01/03 12:43:24;;;;;;;24.98;14.18;;;3.30;83.80;;;;;;5034535;28;20033;-67
2021/01/03 12:45:50;;;;;;;25.52;14.65;;;3.30;83.60;;;;;;5034003;28;20075;-67
2021/01/03 12:48:16;;;;;;;29.45;15.98;;;3.30;83.60;;;;;;5032464;28;20033;-67
2021/01/03 12:50:41;;;;;;;26.08;15.15;;;3.30;83.40;;;;;;5024733;28;20030;-67
2021/01/03 12:53:07;;;;;;;23.70;13.27;;;3.20;83.40;;;;;;5014562;28;20040;-67
2021/01/03 12:55:32;;;;;;;24.30;13.70;;;3.20;83.60;;;;;;5013799;28;20041;-67
2021/01/03 12:57:58;;;;;;;43.40;24.17;;;3.20;83.90;;;;;;5016279;28;20113;-67
2021/01/03 13:00:24;;;;;;;27.65;15.82;;;3.20;84.00;;;;;;5033758;28;20021;-67